Date,TemperatureHighF,TemperatureAvgF,TemperatureLowF,DewpointHighF,DewpointAvgF,DewpointLowF,HumidityHigh,HumidityAvg,HumidityLow,PressureMaxIn,PressureMinIn,WindSpeedMaxMPH,WindSpeedAvgMPH,GustSpeedMaxMPH,PrecipitationSumIn
2012-12-1,36.7,23.9,14.4,34.0,20.4,9.0,92,86,75,30.61,30.41,4,0,7,0.02
2012-12-2,45.7,42.0,36.7,42.0,38.5,34.0,96,87,77,30.40,29.94,12,2,15,0.13
2012-12-3,44.0,38.5,35.1,43.0,36.5,33.0,96,93,89,30.25,29.94,8,1,17,0.00
2012-12-4,53.3,47.4,37.7,50.0,45.0,35.0,94,91,86,30.23,29.83,7,2,13,0.06
2012-12-5,51.5,33.3,21.4,50.0,29.6,17.0,95,86,72,30.19,29.81,12,4,25,0.17
2012-12-6,31.0,22.7,19.3,19.0,16.2,11.0,85,76,44,30.39,30.20,8,2,15,0.00
2012-12-7,35.8,32.9,30.7,31.0,19.4,6.0,93,61,33,30.22,30.02,7,2,12,0.00
2012-12-8,41.7,36.8,31.7,40.0,35.6,30.0,96,94,92,30.02,29.79,5,1,11,0.01
2012-12-9,38.3,31.3,27.8,37.0,27.3,23.0,95,85,65,30.29,29.96,7,1,14,0.00
2012-12-10,48.6,41.3,32.9,47.0,39.1,28.0,95,92,79,30.04,29.48,8,2,15,0.29
2012-12-11,32.7,25.2,21.5,32.0,23.4,20.0,96,92,88,30.17,29.57,4,1,6,0.00
2012-12-12,30.1,24.8,18.3,25.0,21.3,16.0,93,86,79,30.41,30.17,4,0,8,0.00
2012-12-13,32.6,27.9,24.0,25.0,23.3,22.0,93,83,65,30.46,30.24,3,0,8,0.00
2012-12-14,33.3,30.5,26.9,29.0,24.8,22.0,87,80,69,30.24,30.09,12,2,13,0.00
2012-12-15,27.5,20.7,16.8,23.0,13.6,2.0,86,75,39,30.37,30.21,7,1,9,0.00
2012-12-16,33.4,28.6,19.4,30.0,23.4,11.0,89,81,69,30.29,29.98,5,1,11,0.00
2012-12-17,38.1,34.6,30.4,34.0,30.2,27.0,89,84,79,29.99,29.75,10,2,13,0.22
2012-12-18,38.7,35.7,32.4,37.0,34.0,31.0,96,93,83,29.74,29.44,12,1,25,0.34
2012-12-19,32.3,29.9,27.2,31.0,28.6,26.0,95,94,93,30.10,29.50,9,3,14,0.00
2012-12-20,32.5,28.3,25.4,28.0,25.6,24.0,95,89,78,30.23,29.92,5,1,8,0.00
2012-12-21,41.8,32.9,31.2,41.0,26.1,-99.9,96,86,83,29.88,28.93,19,-37,31,0.01
2012-12-22,30.3,21.2,15.8,29.0,18.3,12.0,94,88,79,29.69,29.11,11,3,18,0.00
2012-12-23,25.8,19.6,12.1,24.0,16.3,9.0,94,86,74,29.86,29.69,6,1,13,0.00
2012-12-24,23.7,17.8,13.0,18.0,14.2,10.0,91,85,72,30.09,29.86,3,1,7,0.00
2012-12-25,23.5,16.0,9.2,17.0,12.8,7.0,91,87,76,30.35,30.01,3,0,6,0.00
2012-12-26,26.7,16.6,8.9,20.0,12.3,6.0,90,83,67,30.40,30.01,6,0,9,0.00
2012-12-27,23.9,20.8,16.2,23.0,19.0,14.0,94,92,91,29.97,29.62,0,0,0,0.00
2012-12-28,22.8,19.9,16.3,21.0,18.2,14.0,93,93,92,30.06,29.80,0,0,0,0.00
2012-12-29,25.1,20.4,15.2,24.0,18.7,13.0,94,93,91,30.04,29.60,0,0,0,0.00
2012-12-30,14.8,10.5,8.1,13.0,8.0,5.0,91,89,88,30.12,29.60,0,0,0,0.00
2012-12-31,25.2,19.9,12.4,24.0,17.7,10.0,94,91,89,30.11,29.70,7,1,14,0.00